createdAt,value
2023-01-17T00:01:13.791Z,98438.55
2023-01-17T00:03:59.580Z,98436.92
2023-01-17T00:06:45.324Z,98436.69
2023-01-17T00:09:31.386Z,98438.42
2023-01-17T00:11:58.736Z,98433.02
2023-01-17T00:14:25.759Z,98430.60
2023-01-17T00:16:52.736Z,98423.38
2023-01-17T00:19:38.467Z,98422.48
2023-01-17T00:22:30.757Z,98424.52
2023-01-17T00:25:16.479Z,98420.48
2023-01-17T00:27:43.195Z,98415.85
2023-01-17T00:30:10.819Z,98409.28
2023-01-17T00:32:37.542Z,98410.69
2023-01-17T00:35:04.963Z,98408.55
2023-01-17T00:37:31.614Z,98415.19
2023-01-17T00:39:58.362Z,98407.94
2023-01-17T00:42:25.064Z,98406.37
2023-01-17T00:45:10.724Z,98406.50
2023-01-17T00:47:57.030Z,98404.85
2023-01-17T00:50:42.647Z,98406.69
2023-01-17T00:53:28.362Z,98401.27
2023-01-17T00:56:14.076Z,98399.70
2023-01-17T00:58:59.699Z,98395.86
2023-01-17T01:01:45.484Z,98398.78
2023-01-17T01:04:31.084Z,98400.30
2023-01-17T01:07:16.604Z,98399.92
2023-01-17T01:10:02.409Z,98399.69
2023-01-17T01:12:47.958Z,98394.71
2023-01-17T01:15:33.510Z,98389.14
2023-01-17T01:18:28.326Z,98389.20
2023-01-17T01:21:13.985Z,98378.63
2023-01-17T01:23:59.504Z,98371.54
2023-01-17T01:26:45.234Z,98371.98
2023-01-17T01:29:30.733Z,98370.35
2023-01-17T01:32:16.133Z,98367.63
2023-01-17T01:34:42.903Z,98365.93
2023-01-17T01:37:09.657Z,98367.63
2023-01-17T01:39:36.396Z,98362.36
2023-01-17T01:42:03.241Z,98361.64
2023-01-17T01:44:59.522Z,98349.86
2023-01-17T01:47:29.328Z,98353.34
2023-01-17T01:49:56.040Z,98351.48
2023-01-17T01:52:23.713Z,98342.87
2023-01-17T01:54:53.772Z,98341.02
2023-01-17T01:57:22.986Z,98348.81
2023-01-17T01:59:54.198Z,98340.91
2023-01-17T02:03:36.304Z,98338.05
2023-01-17T02:06:14.636Z,98340.54
2023-01-17T02:08:41.360Z,98339.61
2023-01-17T02:11:08.052Z,98341.94
2023-01-17T02:13:34.734Z,98340.61
2023-01-17T02:16:07.740Z,98335.14
2023-01-17T02:18:57.582Z,98333.83
2023-01-17T02:21:48.635Z,98330.89
2023-01-17T02:24:54.499Z,98325.63
2023-01-17T02:27:25.697Z,98315.46
2023-01-17T02:30:35.441Z,98312.07
2023-01-17T02:33:20.037Z,98312.94
2023-01-17T02:36:05.636Z,98299.79
2023-01-17T02:38:51.512Z,98295.87
2023-01-17T02:41:21.487Z,98290.52
2023-01-17T02:43:49.711Z,98285.57
2023-01-17T02:46:16.606Z,98276.40
2023-01-17T02:48:43.289Z,98275.10
2023-01-17T02:51:19.180Z,98279.89
2023-01-17T02:54:04.374Z,98275.20
2023-01-17T02:56:45.772Z,98271.08
2023-01-17T02:59:38.628Z,98264.14
2023-01-17T03:02:18.209Z,98265.10
2023-01-17T03:05:12.655Z,98269.70
2023-01-17T03:07:40.024Z,98269.33
2023-01-17T03:10:07.368Z,98261.27
2023-01-17T03:12:35.521Z,98263.68
2023-01-17T03:15:05.359Z,98263.62
2023-01-17T03:18:05.159Z,98256.73
2023-01-17T03:20:33.465Z,98253.98
2023-01-17T03:23:00.257Z,98255.30
2023-01-17T03:25:27.429Z,98258.00
2023-01-17T03:27:54.408Z,98254.37
2023-01-17T03:30:23.204Z,98255.55
2023-01-17T03:32:50.262Z,98251.42
2023-01-17T03:35:16.937Z,98256.98
2023-01-17T03:37:43.685Z,98255.05
2023-01-17T03:40:11.100Z,98257.19
2023-01-17T03:42:37.977Z,98247.46
2023-01-17T03:45:05.458Z,98249.51
2023-01-17T03:47:32.151Z,98249.74
2023-01-17T03:49:58.853Z,98253.00
2023-01-17T03:52:25.593Z,98247.71
2023-01-17T03:54:52.305Z,98242.89
2023-01-17T03:57:18.995Z,98235.81
2023-01-17T03:59:47.208Z,98227.67
2023-01-17T04:02:14.051Z,98237.77
2023-01-17T04:04:41.313Z,98227.75
2023-01-17T04:07:08.018Z,98222.53
2023-01-17T04:09:35.566Z,98220.09
2023-01-17T04:12:02.699Z,98218.58
2023-01-17T04:14:29.454Z,98223.27
2023-01-17T07:23:52.363Z,98242.62
2023-01-17T07:26:19.392Z,98241.39
2023-01-17T07:28:46.122Z,98236.19
2023-01-17T07:31:13.062Z,98241.10
2023-01-17T07:33:39.875Z,98240.06
2023-01-17T07:36:07.514Z,98233.19
2023-01-17T07:38:34.909Z,98232.47
2023-01-17T07:41:01.891Z,98229.24
2023-01-17T07:43:28.751Z,98230.50
2023-01-17T07:45:55.906Z,98234.67
2023-01-17T07:48:24.110Z,98232.18
2023-01-17T07:50:52.619Z,98229.73
2023-01-17T07:53:19.517Z,98233.67
2023-01-17T07:55:47.889Z,98232.59
2023-01-17T07:58:15.122Z,98221.71
2023-01-17T08:00:44.952Z,98231.11
2023-01-17T08:03:13.898Z,98229.00
2023-01-17T08:05:44.568Z,98225.92
2023-01-17T08:08:11.330Z,98226.59
2023-01-17T08:10:40.177Z,98227.52
2023-01-17T08:13:07.106Z,98224.05
2023-01-17T08:15:36.953Z,98224.19
2023-01-17T08:18:03.685Z,98224.06
2023-01-17T08:20:30.491Z,98227.84
2023-01-17T08:22:57.402Z,98226.79
2023-01-17T08:25:24.744Z,98219.59
2023-01-17T08:28:06.236Z,98217.84
2023-01-17T08:30:32.972Z,98215.77
2023-01-17T08:33:02.334Z,98215.17
2023-01-17T08:35:29.155Z,98211.60
2023-01-17T08:37:56.681Z,98209.20
2023-01-17T08:40:24.279Z,98210.59
2023-01-17T08:42:58.229Z,98206.48
2023-01-17T08:45:28.417Z,98200.55
2023-01-17T08:47:55.315Z,98198.87
2023-01-17T08:50:22.250Z,98199.15
2023-01-17T08:52:50.027Z,98193.42
2023-01-17T08:55:17.328Z,98187.67
2023-01-17T08:57:45.252Z,98186.21
2023-01-17T09:00:15.597Z,98172.89
2023-01-17T09:02:42.372Z,98172.98
2023-01-17T09:05:09.545Z,98167.35
2023-01-17T09:07:36.370Z,98165.10
2023-01-17T09:10:03.293Z,98164.55
2023-01-17T09:12:32.832Z,98161.06
2023-01-17T09:14:59.795Z,98160.25
2023-01-17T09:17:26.524Z,98156.08
2023-01-17T09:19:53.255Z,98149.18
2023-01-17T09:22:19.985Z,98141.73
2023-01-17T09:24:48.178Z,98141.69
2023-01-17T09:27:15.092Z,98135.21
2023-01-17T09:29:43.737Z,98127.11
2023-01-17T09:32:10.477Z,98128.18
2023-01-17T09:34:52.134Z,98126.14
2023-01-17T09:37:20.593Z,98120.47
2023-01-17T09:39:47.416Z,98121.27
2023-01-17T09:42:34.334Z,98114.30
2023-01-17T09:45:01.113Z,98118.20
2023-01-17T09:47:43.974Z,98121.30
2023-01-17T09:50:31.862Z,98111.45
2023-01-17T09:53:01.415Z,98112.59
2023-01-17T09:55:37.195Z,98112.32
2023-01-17T09:58:12.708Z,98109.48
2023-01-17T10:00:54.690Z,98108.06
2023-01-17T10:03:33.864Z,98105.02
2023-01-17T10:06:24.880Z,98105.09
2023-01-17T10:09:08.068Z,98097.84
2023-01-17T10:11:46.899Z,98094.52
2023-01-17T10:14:19.694Z,98095.23
2023-01-17T10:16:58.271Z,98090.77
2023-01-17T10:19:49.156Z,98093.11
2023-01-17T10:22:39.144Z,98087.31
2023-01-17T10:25:16.034Z,98090.59
2023-01-17T10:27:48.704Z,98094.30
2023-01-17T10:30:24.474Z,98088.95
2023-01-17T10:32:51.330Z,98083.79
2023-01-17T10:35:22.558Z,98079.34
2023-01-17T10:37:49.453Z,98081.75
2023-01-17T10:40:19.849Z,98076.91
2023-01-17T10:42:52.329Z,98071.17
2023-01-17T10:45:36.615Z,98078.27
2023-01-17T10:48:23.154Z,98073.95
2023-01-17T10:51:06.096Z,98067.20
2023-01-17T10:54:04.172Z,98065.05
2023-01-17T10:56:31.084Z,98057.83
2023-01-17T10:59:20.683Z,98057.92
2023-01-17T11:01:49.189Z,98057.69
2023-01-17T11:04:45.067Z,98048.02
2023-01-17T11:07:17.250Z,98043.55
2023-01-17T11:09:49.698Z,98038.22
2023-01-17T11:12:40.344Z,98035.36
2023-01-17T11:15:10.207Z,98031.62
2023-01-17T11:17:38.112Z,98033.36
2023-01-17T11:20:09.540Z,98028.11
2023-01-17T11:22:36.230Z,98025.59
2023-01-17T11:25:02.936Z,98029.66
2023-01-17T11:27:34.474Z,98028.20
2023-01-17T11:30:16.458Z,98021.73
2023-01-17T11:33:04.003Z,98019.33
2023-01-17T11:35:31.684Z,98015.48
2023-01-17T11:38:10.692Z,98013.66
2023-01-17T11:40:41.914Z,98020.66
2023-01-17T11:43:11.967Z,98016.61
2023-01-17T11:45:39.704Z,98011.96
2023-01-17T11:48:15.568Z,98001.87
2023-01-17T11:50:57.331Z,97995.96
2023-01-17T11:53:28.689Z,97989.90
2023-01-17T11:56:06.518Z,97990.85
2023-01-17T11:58:34.899Z,97993.77
2023-01-17T12:01:37.588Z,97990.72
2023-01-17T12:04:10.481Z,97998.30
2023-01-17T12:06:58.066Z,97987.03
2023-01-17T12:09:35.189Z,97985.77
2023-01-17T12:12:50.269Z,97990.58
2023-01-17T12:15:30.220Z,97991.51
2023-01-17T12:17:57.077Z,97990.02
2023-01-17T12:20:24.627Z,97990.17
2023-01-17T12:23:04.568Z,97988.81
2023-01-17T12:25:49.111Z,97981.91
2023-01-17T12:28:25.529Z,97977.52
2023-01-17T12:30:58.985Z,97981.59
2023-01-17T12:33:30.851Z,97982.95
2023-01-17T12:36:36.230Z,97983.11
2023-01-17T12:39:05.454Z,97985.88
2023-01-17T12:41:35.728Z,97984.25
2023-01-17T12:44:04.682Z,97989.94
2023-01-17T12:46:55.686Z,97988.44
2023-01-17T12:49:43.647Z,97994.34
2023-01-17T12:52:48.699Z,97994.55
2023-01-17T12:55:22.389Z,97994.67
2023-01-17T12:57:56.407Z,97997.64
2023-01-17T13:00:25.566Z,97999.63
2023-01-17T13:02:58.524Z,97999.84
2023-01-17T13:12:15.784Z,98002.35
2023-01-17T13:14:45.654Z,98004.52
2023-01-17T13:17:51.434Z,98003.38
2023-01-17T13:20:33.142Z,97999.24
2023-01-17T13:23:29.638Z,98004.73
2023-01-17T13:25:57.696Z,97991.39
2023-01-17T13:29:01.735Z,97987.91
2023-01-17T13:31:44.886Z,97988.29
2023-01-17T13:34:24.802Z,97987.48
2023-01-17T13:37:16.068Z,97978.85
2023-01-17T13:40:21.324Z,97976.18
2023-01-17T13:42:54.329Z,97978.14
2023-01-17T13:45:22.965Z,97977.98
2023-01-17T13:47:49.565Z,97980.61
2023-01-17T13:50:35.539Z,97983.88
2023-01-17T13:53:33.205Z,97984.08
2023-01-17T13:56:18.255Z,97982.24
2023-01-17T13:58:49.646Z,97981.58
2023-01-17T14:01:21.395Z,97979.58
2023-01-17T14:03:51.100Z,97968.86
2023-01-17T14:06:33.406Z,97973.15
2023-01-17T14:09:12.393Z,97971.13
2023-01-17T14:11:58.693Z,97969.00
2023-01-17T14:14:43.558Z,97967.17
2023-01-17T14:17:16.243Z,97963.80
2023-01-17T14:19:51.956Z,97965.13
2023-01-17T14:22:18.649Z,97963.09
2023-01-17T14:25:19.345Z,97965.18
2023-01-17T14:28:02.893Z,97970.27
2023-01-17T14:30:35.709Z,97976.79
2023-01-17T14:33:05.285Z,97977.12
2023-01-17T14:35:40.720Z,97984.44
2023-01-17T14:38:15.559Z,97980.55
2023-01-17T14:40:54.200Z,97972.59
2023-01-17T14:43:23.180Z,97978.59
2023-01-17T14:46:00.265Z,97972.16
2023-01-17T14:48:30.491Z,97964.44
2023-01-17T14:50:59.499Z,97965.64
2023-01-17T14:53:28.319Z,97962.13
2023-01-17T14:56:11.302Z,97963.19
2023-01-17T14:58:38.686Z,97959.65
2023-01-17T15:01:16.917Z,97953.18
2023-01-17T15:03:52.778Z,97952.81
2023-01-17T15:06:28.605Z,97956.54
2023-01-17T15:08:55.648Z,97957.66
2023-01-17T15:11:27.177Z,97957.52
2023-01-17T15:13:56.733Z,97961.77
2023-01-17T15:16:24.338Z,97976.27
2023-01-17T15:18:53.517Z,97975.58
2023-01-17T15:21:26.445Z,97965.54
2023-01-17T15:23:58.053Z,97972.90
2023-01-17T15:26:38.597Z,97966.48
2023-01-17T15:29:24.956Z,97959.61
2023-01-17T15:31:57.521Z,97960.39
2023-01-17T15:34:24.088Z,97960.72
2023-01-17T15:36:51.216Z,97952.63
2023-01-17T15:39:21.972Z,97955.73
2023-01-17T15:41:52.975Z,97949.27
2023-01-17T15:44:39.091Z,97949.63
2023-01-17T15:47:26.160Z,97952.52
2023-01-17T15:49:52.802Z,97958.59
2023-01-17T15:52:20.890Z,97972.59
2023-01-17T15:54:54.914Z,97973.14
2023-01-17T15:57:37.547Z,97973.55
2023-01-17T16:00:18.047Z,97974.59
2023-01-17T16:02:57.104Z,97969.55
2023-01-17T16:05:24.345Z,97964.05
2023-01-17T16:07:55.242Z,97964.33
2023-01-17T16:10:23.977Z,97969.89
2023-01-17T16:12:52.932Z,97969.88
2023-01-17T16:15:19.780Z,97977.52
2023-01-17T16:17:47.898Z,97977.96
2023-01-17T16:20:22.773Z,97981.22
2023-01-17T16:22:49.646Z,97980.31
2023-01-17T16:25:18.056Z,97984.26
2023-01-17T16:27:45.404Z,97989.49
2023-01-17T16:30:16.952Z,97993.00
2023-01-17T16:32:48.587Z,97996.84
2023-01-17T16:35:20.234Z,97994.38
2023-01-17T16:37:51.323Z,98002.63
2023-01-17T16:40:19.284Z,97997.84
2023-01-17T16:42:46.667Z,97999.05
2023-01-17T16:45:13.805Z,98004.92
2023-01-17T16:47:41.802Z,98001.41
2023-01-17T16:50:10.567Z,98007.09
2023-01-17T16:52:37.451Z,98001.66
2023-01-17T16:55:09.927Z,98007.58
2023-01-17T16:58:05.736Z,98026.54
2023-01-17T17:00:34.889Z,98033.90
2023-01-17T17:03:01.653Z,98026.26
2023-01-17T17:05:28.941Z,98033.02
2023-01-17T17:07:56.470Z,98032.23
2023-01-17T17:10:27.832Z,98036.59
2023-01-17T17:12:56.529Z,98032.50
2023-01-17T17:15:23.390Z,98026.15
2023-01-17T17:17:51.322Z,98029.61
2023-01-17T17:20:18.328Z,98037.43
2023-01-17T17:22:56.446Z,98044.67
2023-01-17T17:25:23.176Z,98045.55
2023-01-17T17:27:54.450Z,98051.51
2023-01-17T17:30:21.470Z,98050.83
2023-01-17T17:32:48.296Z,98051.94
2023-01-17T17:35:15.317Z,98057.34
2023-01-17T17:37:43.862Z,98053.86
2023-01-17T17:40:13.961Z,98052.84
2023-01-17T17:42:43.001Z,98058.67
2023-01-17T17:45:10.632Z,98060.63
2023-01-17T17:47:44.062Z,98055.66
2023-01-17T17:50:19.905Z,98059.42
2023-01-17T17:52:49.528Z,98060.77
2023-01-17T17:55:19.059Z,98063.48
2023-01-17T17:57:50.105Z,98064.66
2023-01-17T18:00:17.941Z,98064.69
2023-01-17T18:02:45.866Z,98069.21
2023-01-17T18:05:12.739Z,98070.77
2023-01-17T18:07:40.352Z,98074.45
2023-01-17T18:10:08.664Z,98076.54
2023-01-17T18:12:35.443Z,98083.29
2023-01-17T18:15:05.922Z,98082.48
2023-01-17T18:17:32.777Z,98078.29
2023-01-17T18:20:02.400Z,98082.55
2023-01-17T18:22:29.113Z,98078.24
2023-01-17T18:24:55.972Z,98080.52
2023-01-17T18:27:25.642Z,98077.36
2023-01-17T18:29:54.002Z,98079.61
2023-01-17T18:32:24.195Z,98088.05
2023-01-17T18:34:51.674Z,98100.45
2023-01-17T18:37:19.911Z,98098.10
2023-01-17T18:39:48.432Z,98096.11
2023-01-17T18:42:18.145Z,98108.60
2023-01-17T18:44:45.067Z,98111.47
2023-01-17T18:47:13.047Z,98108.66
2023-01-17T18:49:43.003Z,98112.27
2023-01-17T18:52:17.750Z,98118.81
2023-01-17T18:54:44.552Z,98127.41
2023-01-17T18:57:13.395Z,98128.69
2023-01-17T18:59:40.276Z,98124.14
2023-01-17T19:02:08.776Z,98125.95
2023-01-17T19:04:45.161Z,98127.07
2023-01-17T19:07:12.733Z,98136.09
2023-01-17T19:09:40.061Z,98138.84
2023-01-17T19:12:08.099Z,98144.13
2023-01-17T19:14:34.890Z,98142.96
2023-01-17T19:17:06.033Z,98139.09
2023-01-17T19:19:32.776Z,98145.06
2023-01-17T19:21:59.563Z,98150.48
2023-01-17T19:24:26.704Z,98158.02
2023-01-17T19:26:54.148Z,98155.66
2023-01-17T19:29:21.071Z,98157.88
2023-01-17T19:31:47.802Z,98167.94
2023-01-17T19:34:14.815Z,98162.98
2023-01-17T19:36:47.850Z,98160.65
2023-01-17T19:39:14.659Z,98161.20
2023-01-17T19:41:43.815Z,98164.42
2023-01-17T19:44:11.848Z,98168.16
2023-01-17T19:49:15.310Z,98163.54
2023-01-17T19:51:42.532Z,98165.86
2023-01-17T19:54:09.380Z,98169.95
2023-01-17T19:56:36.861Z,98165.30
2023-01-17T19:59:07.264Z,98157.58
2023-01-17T20:01:34.756Z,98150.67
2023-01-17T20:04:02.671Z,98153.13
2023-01-17T20:06:31.455Z,98158.42
2023-01-17T20:09:01.177Z,98157.16
2023-01-17T20:11:28.463Z,98158.16
2023-01-17T20:13:56.815Z,98164.05
2023-01-17T20:16:24.415Z,98163.29
2023-01-17T20:18:51.450Z,98164.23
2023-01-17T20:21:22.310Z,98162.73
2023-01-17T20:23:50.152Z,98163.98
2023-01-17T20:26:18.836Z,98171.88
2023-01-17T20:28:46.572Z,98173.80
2023-01-17T20:31:23.670Z,98179.64
2023-01-17T20:33:51.029Z,98180.36
2023-01-17T20:36:18.703Z,98193.08
2023-01-17T20:38:45.550Z,98197.16
2023-01-17T20:41:19.991Z,98194.73
2023-01-17T20:43:48.682Z,98185.10
2023-01-17T20:46:18.467Z,98179.55
2023-01-17T20:48:55.820Z,98181.30
2023-01-17T20:51:27.124Z,98189.91
2023-01-17T20:54:00.670Z,98187.23
2023-01-17T20:56:30.453Z,98192.86
2023-01-17T20:58:58.044Z,98195.85
2023-01-17T21:01:25.082Z,98197.75
2023-01-17T21:03:53.924Z,98203.45
2023-01-17T21:06:24.428Z,98212.47
2023-01-17T21:08:53.671Z,98214.70
2023-01-17T21:11:22.160Z,98213.37
2023-01-17T21:13:48.998Z,98213.16
2023-01-17T21:16:16.999Z,98208.66
2023-01-17T21:18:46.821Z,98207.52
2023-01-17T21:21:17.375Z,98204.44
2023-01-17T21:23:49.389Z,98210.04
2023-01-17T21:26:16.745Z,98206.98
2023-01-17T21:28:45.194Z,98200.36
2023-01-17T21:31:25.279Z,98191.55
2023-01-17T21:33:58.703Z,98194.86
2023-01-17T21:36:27.447Z,98200.52
2023-01-17T21:38:57.122Z,98196.45
2023-01-17T21:41:26.981Z,98185.13
2023-01-17T21:43:57.123Z,98179.66
2023-01-17T21:46:24.064Z,98178.58
2023-01-17T21:48:53.576Z,98172.94
2023-01-17T21:51:24.356Z,98174.45
2023-01-17T21:53:51.232Z,98177.73
2023-01-17T21:56:36.845Z,98177.56
2023-01-17T21:59:03.646Z,98178.70
